sensor_id;sensor_type;location;lat;lon;timestamp;P1;durP1;ratioP1;P2;durP2;ratioP2
62401;SDS011;48440;51.224;22.506;2023-07-24T00:01:45;8.75;;;5.43;;
62401;SDS011;48440;51.224;22.506;2023-07-24T00:04:10;9.68;;;5.35;;
62401;SDS011;48440;51.224;22.506;2023-07-24T00:06:36;7.00;;;5.50;;
62401;SDS011;48440;51.224;22.506;2023-07-24T00:09:05;7.20;;;5.35;;
62401;SDS011;48440;51.224;22.506;2023-07-24T00:11:31;11.90;;;5.93;;
62401;SDS011;48440;51.224;22.506;2023-07-24T00:13:57;8.68;;;5.55;;
62401;SDS011;48440;51.224;22.506;2023-07-24T00:16:23;12.43;;;5.57;;
62401;SDS011;48440;51.224;22.506;2023-07-24T00:18:49;9.60;;;5.32;;
62401;SDS011;48440;51.224;22.506;2023-07-24T00:21:14;7.97;;;5.53;;
62401;SDS011;48440;51.224;22.506;2023-07-24T00:23:42;9.88;;;5.25;;
62401;SDS011;48440;51.224;22.506;2023-07-24T00:26:08;8.57;;;5.43;;
62401;SDS011;48440;51.224;22.506;2023-07-24T00:28:35;10.63;;;5.78;;
62401;SDS011;48440;51.224;22.506;2023-07-24T00:31:01;9.57;;;5.50;;
62401;SDS011;48440;51.224;22.506;2023-07-24T00:33:27;9.45;;;5.72;;
62401;SDS011;48440;51.224;22.506;2023-07-24T00:35:56;11.05;;;5.95;;
62401;SDS011;48440;51.224;22.506;2023-07-24T00:38:23;7.00;;;4.82;;
62401;SDS011;48440;51.224;22.506;2023-07-24T00:40:49;8.90;;;5.28;;
62401;SDS011;48440;51.224;22.506;2023-07-24T00:43:16;7.50;;;5.00;;
62401;SDS011;48440;51.224;22.506;2023-07-24T00:45:44;9.32;;;5.05;;
62401;SDS011;48440;51.224;22.506;2023-07-24T00:48:12;7.63;;;5.35;;
62401;SDS011;48440;51.224;22.506;2023-07-24T00:50:38;7.78;;;5.40;;
62401;SDS011;48440;51.224;22.506;2023-07-24T00:53:04;9.18;;;5.35;;
62401;SDS011;48440;51.224;22.506;2023-07-24T00:55:32;8.88;;;5.53;;
62401;SDS011;48440;51.224;22.506;2023-07-24T00:57:58;8.60;;;5.28;;
62401;SDS011;48440;51.224;22.506;2023-07-24T01:00:31;10.00;;;5.20;;
62401;SDS011;48440;51.224;22.506;2023-07-24T01:03:02;9.10;;;5.22;;
62401;SDS011;48440;51.224;22.506;2023-07-24T01:05:31;11.02;;;5.80;;
62401;SDS011;48440;51.224;22.506;2023-07-24T01:07:57;11.52;;;5.60;;
62401;SDS011;48440;51.224;22.506;2023-07-24T01:10:23;8.75;;;4.88;;
62401;SDS011;48440;51.224;22.506;2023-07-24T01:13:15;11.10;;;5.30;;
62401;SDS011;48440;51.224;22.506;2023-07-24T01:18:28;9.35;;;5.43;;
62401;SDS011;48440;51.224;22.506;2023-07-24T01:20:56;9.48;;;5.50;;
62401;SDS011;48440;51.224;22.506;2023-07-24T01:28:56;8.25;;;5.22;;
62401;SDS011;48440;51.224;22.506;2023-07-24T01:31:25;8.95;;;5.72;;
62401;SDS011;48440;51.224;22.506;2023-07-24T01:33:54;10.45;;;5.93;;
62401;SDS011;48440;51.224;22.506;2023-07-24T01:36:25;8.38;;;5.30;;
62401;SDS011;48440;51.224;22.506;2023-07-24T01:38:52;8.57;;;4.93;;
62401;SDS011;48440;51.224;22.506;2023-07-24T01:41:19;8.60;;;5.57;;
62401;SDS011;48440;51.224;22.506;2023-07-24T01:43:48;7.82;;;5.10;;
62401;SDS011;48440;51.224;22.506;2023-07-24T01:51:35;10.40;;;5.50;;
62401;SDS011;48440;51.224;22.506;2023-07-24T01:54:07;10.88;;;5.63;;
62401;SDS011;48440;51.224;22.506;2023-07-24T01:56:44;10.20;;;5.45;;
62401;SDS011;48440;51.224;22.506;2023-07-24T01:59:10;8.75;;;5.35;;
62401;SDS011;48440;51.224;22.506;2023-07-24T02:01:46;7.75;;;4.93;;
62401;SDS011;48440;51.224;22.506;2023-07-24T02:06:57;7.00;;;4.63;;
62401;SDS011;48440;51.224;22.506;2023-07-24T02:09:22;8.13;;;5.15;;
62401;SDS011;48440;51.224;22.506;2023-07-24T02:14:23;8.30;;;4.93;;
62401;SDS011;48440;51.224;22.506;2023-07-24T02:16:49;8.85;;;5.32;;
62401;SDS011;48440;51.224;22.506;2023-07-24T02:19:17;6.60;;;4.65;;
62401;SDS011;48440;51.224;22.506;2023-07-24T02:21:45;7.63;;;5.22;;
62401;SDS011;48440;51.224;22.506;2023-07-24T02:24:13;8.05;;;5.38;;
62401;SDS011;48440;51.224;22.506;2023-07-24T02:26:38;7.65;;;4.93;;
62401;SDS011;48440;51.224;22.506;2023-07-24T02:29:06;7.65;;;5.00;;
62401;SDS011;48440;51.224;22.506;2023-07-24T02:31:37;8.25;;;5.22;;
62401;SDS011;48440;51.224;22.506;2023-07-24T02:34:07;8.60;;;5.50;;
62401;SDS011;48440;51.224;22.506;2023-07-24T02:36:35;8.43;;;5.13;;
62401;SDS011;48440;51.224;22.506;2023-07-24T02:39:01;8.02;;;5.15;;
62401;SDS011;48440;51.224;22.506;2023-07-24T02:41:27;7.82;;;5.30;;
62401;SDS011;48440;51.224;22.506;2023-07-24T02:43:55;8.93;;;5.18;;
62401;SDS011;48440;51.224;22.506;2023-07-24T02:46:23;9.88;;;5.13;;
62401;SDS011;48440;51.224;22.506;2023-07-24T02:48:50;7.18;;;4.95;;
62401;SDS011;48440;51.224;22.506;2023-07-24T02:51:19;7.57;;;5.30;;
62401;SDS011;48440;51.224;22.506;2023-07-24T03:44:01;7.85;;;5.10;;
62401;SDS011;48440;51.224;22.506;2023-07-24T03:46:27;8.20;;;4.90;;
62401;SDS011;48440;51.224;22.506;2023-07-24T03:48:52;10.98;;;5.25;;
62401;SDS011;48440;51.224;22.506;2023-07-24T03:51:22;7.28;;;4.57;;
62401;SDS011;48440;51.224;22.506;2023-07-24T03:56:28;7.75;;;4.95;;
62401;SDS011;48440;51.224;22.506;2023-07-24T04:08:04;8.73;;;5.00;;
62401;SDS011;48440;51.224;22.506;2023-07-24T04:10:30;13.20;;;5.10;;
62401;SDS011;48440;51.224;22.506;2023-07-24T04:12:56;9.15;;;4.53;;
62401;SDS011;48440;51.224;22.506;2023-07-24T04:15:28;9.20;;;5.20;;
62401;SDS011;48440;51.224;22.506;2023-07-24T04:17:58;7.07;;;4.55;;
62401;SDS011;48440;51.224;22.506;2023-07-24T04:20:24;7.63;;;5.30;;
62401;SDS011;48440;51.224;22.506;2023-07-24T04:22:49;7.70;;;4.57;;
62401;SDS011;48440;51.224;22.506;2023-07-24T04:25:15;7.97;;;4.90;;
62401;SDS011;48440;51.224;22.506;2023-07-24T04:27:40;6.93;;;4.90;;
62401;SDS011;48440;51.224;22.506;2023-07-24T04:30:06;8.13;;;4.60;;
62401;SDS011;48440;51.224;22.506;2023-07-24T04:32:32;8.35;;;4.78;;
62401;SDS011;48440;51.224;22.506;2023-07-24T04:34:58;7.22;;;4.55;;
62401;SDS011;48440;51.224;22.506;2023-07-24T04:37:23;8.43;;;4.88;;
62401;SDS011;48440;51.224;22.506;2023-07-24T04:39:49;9.82;;;4.88;;
62401;SDS011;48440;51.224;22.506;2023-07-24T04:42:14;10.38;;;4.97;;
62401;SDS011;48440;51.224;22.506;2023-07-24T04:44:40;9.65;;;5.43;;
62401;SDS011;48440;51.224;22.506;2023-07-24T04:47:05;8.82;;;5.22;;
62401;SDS011;48440;51.224;22.506;2023-07-24T04:49:30;7.18;;;5.03;;
62401;SDS011;48440;51.224;22.506;2023-07-24T04:51:58;8.05;;;4.88;;
62401;SDS011;48440;51.224;22.506;2023-07-24T04:54:24;8.50;;;4.88;;
62401;SDS011;48440;51.224;22.506;2023-07-24T04:56:49;7.72;;;5.03;;
62401;SDS011;48440;51.224;22.506;2023-07-24T04:59:15;8.77;;;4.85;;
62401;SDS011;48440;51.224;22.506;2023-07-24T05:01:41;8.43;;;5.30;;
62401;SDS011;48440;51.224;22.506;2023-07-24T05:04:06;7.75;;;5.07;;
62401;SDS011;48440;51.224;22.506;2023-07-24T05:06:31;13.95;;;5.40;;
62401;SDS011;48440;51.224;22.506;2023-07-24T05:08:57;7.88;;;4.85;;
62401;SDS011;48440;51.224;22.506;2023-07-24T05:11:22;8.98;;;5.07;;
62401;SDS011;48440;51.224;22.506;2023-07-24T05:13:48;9.63;;;5.00;;
62401;SDS011;48440;51.224;22.506;2023-07-24T05:16:13;7.70;;;4.97;;
62401;SDS011;48440;51.224;22.506;2023-07-24T05:18:39;12.40;;;5.50;;
62401;SDS011;48440;51.224;22.506;2023-07-24T05:21:04;11.20;;;5.60;;
62401;SDS011;48440;51.224;22.506;2023-07-24T05:23:30;9.30;;;5.20;;
62401;SDS011;48440;51.224;22.506;2023-07-24T05:25:58;7.53;;;4.80;;
62401;SDS011;48440;51.224;22.506;2023-07-24T05:28:28;8.07;;;5.38;;
62401;SDS011;48440;51.224;22.506;2023-07-24T05:30:55;7.53;;;4.97;;
62401;SDS011;48440;51.224;22.506;2023-07-24T05:33:21;8.55;;;5.20;;
62401;SDS011;48440;51.224;22.506;2023-07-24T05:35:48;7.82;;;5.07;;
62401;SDS011;48440;51.224;22.506;2023-07-24T05:38:14;9.00;;;5.35;;
62401;SDS011;48440;51.224;22.506;2023-07-24T05:40:39;8.57;;;4.78;;
62401;SDS011;48440;51.224;22.506;2023-07-24T05:43:05;10.73;;;5.10;;
62401;SDS011;48440;51.224;22.506;2023-07-24T05:45:30;7.28;;;4.85;;
62401;SDS011;48440;51.224;22.506;2023-07-24T05:47:56;9.13;;;5.53;;
62401;SDS011;48440;51.224;22.506;2023-07-24T05:50:21;9.27;;;5.38;;
62401;SDS011;48440;51.224;22.506;2023-07-24T05:52:47;11.80;;;5.43;;
62401;SDS011;48440;51.224;22.506;2023-07-24T05:55:12;9.30;;;5.20;;
62401;SDS011;48440;51.224;22.506;2023-07-24T05:57:38;9.75;;;5.32;;
62401;SDS011;48440;51.224;22.506;2023-07-24T06:00:04;8.60;;;5.40;;
62401;SDS011;48440;51.224;22.506;2023-07-24T06:02:30;7.47;;;5.40;;
62401;SDS011;48440;51.224;22.506;2023-07-24T06:04:55;7.75;;;4.95;;
62401;SDS011;48440;51.224;22.506;2023-07-24T06:07:21;8.48;;;5.65;;
62401;SDS011;48440;51.224;22.506;2023-07-24T06:09:47;10.57;;;5.53;;
62401;SDS011;48440;51.224;22.506;2023-07-24T06:12:12;9.98;;;5.72;;
62401;SDS011;48440;51.224;22.506;2023-07-24T06:14:37;8.75;;;5.20;;
62401;SDS011;48440;51.224;22.506;2023-07-24T06:17:03;8.35;;;5.68;;
62401;SDS011;48440;51.224;22.506;2023-07-24T06:19:29;9.57;;;5.47;;
62401;SDS011;48440;51.224;22.506;2023-07-24T06:21:54;9.68;;;5.90;;
62401;SDS011;48440;51.224;22.506;2023-07-24T06:24:19;7.95;;;5.80;;
62401;SDS011;48440;51.224;22.506;2023-07-24T06:26:45;11.13;;;5.63;;
62401;SDS011;48440;51.224;22.506;2023-07-24T06:29:11;9.85;;;6.18;;
62401;SDS011;48440;51.224;22.506;2023-07-24T06:31:36;10.65;;;5.95;;
62401;SDS011;48440;51.224;22.506;2023-07-24T06:34:02;8.75;;;6.10;;
62401;SDS011;48440;51.224;22.506;2023-07-24T06:36:28;9.90;;;5.95;;
62401;SDS011;48440;51.224;22.506;2023-07-24T06:38:53;10.90;;;5.88;;
62401;SDS011;48440;51.224;22.506;2023-07-24T06:41:19;10.98;;;5.93;;
62401;SDS011;48440;51.224;22.506;2023-07-24T06:43:46;8.98;;;5.50;;
62401;SDS011;48440;51.224;22.506;2023-07-24T06:46:11;9.43;;;5.72;;
62401;SDS011;48440;51.224;22.506;2023-07-24T06:48:37;9.98;;;5.90;;
62401;SDS011;48440;51.224;22.506;2023-07-24T06:51:02;9.50;;;5.82;;
62401;SDS011;48440;51.224;22.506;2023-07-24T06:53:28;9.40;;;5.43;;
62401;SDS011;48440;51.224;22.506;2023-07-24T06:55:53;11.18;;;5.32;;
62401;SDS011;48440;51.224;22.506;2023-07-24T06:58:19;8.13;;;5.35;;
62401;SDS011;48440;51.224;22.506;2023-07-24T07:00:44;9.23;;;5.65;;
62401;SDS011;48440;51.224;22.506;2023-07-24T07:03:09;9.25;;;5.63;;
62401;SDS011;48440;51.224;22.506;2023-07-24T07:05:35;8.20;;;5.95;;
62401;SDS011;48440;51.224;22.506;2023-07-24T07:08:00;12.18;;;5.90;;
62401;SDS011;48440;51.224;22.506;2023-07-24T07:10:26;8.90;;;5.60;;
62401;SDS011;48440;51.224;22.506;2023-07-24T07:12:51;11.77;;;5.82;;
62401;SDS011;48440;51.224;22.506;2023-07-24T07:15:17;9.55;;;6.07;;
62401;SDS011;48440;51.224;22.506;2023-07-24T07:17:42;9.85;;;5.40;;
62401;SDS011;48440;51.224;22.506;2023-07-24T07:20:08;9.25;;;5.78;;
62401;SDS011;48440;51.224;22.506;2023-07-24T07:22:34;8.80;;;5.70;;
62401;SDS011;48440;51.224;22.506;2023-07-24T07:24:59;9.45;;;5.65;;
62401;SDS011;48440;51.224;22.506;2023-07-24T07:27:24;9.63;;;5.78;;
62401;SDS011;48440;51.224;22.506;2023-07-24T07:29:50;9.93;;;5.57;;
62401;SDS011;48440;51.224;22.506;2023-07-24T07:32:15;11.40;;;5.63;;
62401;SDS011;48440;51.224;22.506;2023-07-24T07:34:41;10.23;;;6.18;;
62401;SDS011;48440;51.224;22.506;2023-07-24T07:37:07;11.48;;;6.53;;
62401;SDS011;48440;51.224;22.506;2023-07-24T07:39:32;8.48;;;6.20;;
62401;SDS011;48440;51.224;22.506;2023-07-24T07:41:58;10.27;;;5.97;;
62401;SDS011;48440;51.224;22.506;2023-07-24T07:44:23;10.10;;;5.85;;
62401;SDS011;48440;51.224;22.506;2023-07-24T07:46:48;10.55;;;5.43;;
62401;SDS011;48440;51.224;22.506;2023-07-24T07:49:14;8.52;;;5.30;;
62401;SDS011;48440;51.224;22.506;2023-07-24T07:51:40;8.65;;;5.50;;
62401;SDS011;48440;51.224;22.506;2023-07-24T07:54:06;8.55;;;5.85;;
62401;SDS011;48440;51.224;22.506;2023-07-24T07:56:32;8.15;;;5.68;;
62401;SDS011;48440;51.224;22.506;2023-07-24T07:59:00;10.57;;;6.05;;
62401;SDS011;48440;51.224;22.506;2023-07-24T08:01:26;10.18;;;5.88;;
62401;SDS011;48440;51.224;22.506;2023-07-24T08:03:51;10.60;;;5.50;;
62401;SDS011;48440;51.224;22.506;2023-07-24T08:06:17;8.70;;;5.25;;
62401;SDS011;48440;51.224;22.506;2023-07-24T08:08:43;9.98;;;5.35;;
62401;SDS011;48440;51.224;22.506;2023-07-24T08:11:08;13.02;;;5.40;;
62401;SDS011;48440;51.224;22.506;2023-07-24T08:13:35;11.25;;;6.03;;
62401;SDS011;48440;51.224;22.506;2023-07-24T08:16:00;9.93;;;5.43;;
62401;SDS011;48440;51.224;22.506;2023-07-24T08:18:30;11.52;;;5.55;;
62401;SDS011;48440;51.224;22.506;2023-07-24T08:20:55;11.98;;;5.38;;
62401;SDS011;48440;51.224;22.506;2023-07-24T08:23:21;9.43;;;5.38;;
62401;SDS011;48440;51.224;22.506;2023-07-24T08:25:53;7.55;;;5.20;;
62401;SDS011;48440;51.224;22.506;2023-07-24T08:28:19;12.50;;;5.57;;
62401;SDS011;48440;51.224;22.506;2023-07-24T08:30:45;11.90;;;5.50;;
62401;SDS011;48440;51.224;22.506;2023-07-24T08:33:12;8.90;;;5.47;;
62401;SDS011;48440;51.224;22.506;2023-07-24T08:35:38;11.75;;;5.30;;
62401;SDS011;48440;51.224;22.506;2023-07-24T08:38:03;9.68;;;4.88;;
62401;SDS011;48440;51.224;22.506;2023-07-24T08:40:29;8.95;;;5.70;;
62401;SDS011;48440;51.224;22.506;2023-07-24T08:42:55;12.20;;;5.88;;
62401;SDS011;48440;51.224;22.506;2023-07-24T08:45:21;8.55;;;5.40;;
62401;SDS011;48440;51.224;22.506;2023-07-24T08:47:48;9.57;;;5.40;;
62401;SDS011;48440;51.224;22.506;2023-07-24T08:50:15;7.72;;;5.18;;
62401;SDS011;48440;51.224;22.506;2023-07-24T08:52:42;12.55;;;5.63;;
62401;SDS011;48440;51.224;22.506;2023-07-24T08:55:10;7.05;;;5.05;;
62401;SDS011;48440;51.224;22.506;2023-07-24T08:57:36;8.93;;;5.22;;
62401;SDS011;48440;51.224;22.506;2023-07-24T09:00:02;7.70;;;5.22;;
62401;SDS011;48440;51.224;22.506;2023-07-24T09:02:33;9.35;;;5.57;;
62401;SDS011;48440;51.224;22.506;2023-07-24T09:05:00;8.05;;;5.28;;
62401;SDS011;48440;51.224;22.506;2023-07-24T09:07:29;8.07;;;5.63;;
62401;SDS011;48440;51.224;22.506;2023-07-24T09:09:55;9.40;;;5.45;;
62401;SDS011;48440;51.224;22.506;2023-07-24T09:12:22;8.18;;;5.10;;
62401;SDS011;48440;51.224;22.506;2023-07-24T09:14:48;11.73;;;5.45;;
62401;SDS011;48440;51.224;22.506;2023-07-24T09:17:14;9.43;;;5.28;;
62401;SDS011;48440;51.224;22.506;2023-07-24T09:19:40;11.77;;;5.68;;
62401;SDS011;48440;51.224;22.506;2023-07-24T09:22:10;12.05;;;5.40;;
62401;SDS011;48440;51.224;22.506;2023-07-24T09:24:37;8.75;;;5.50;;
62401;SDS011;48440;51.224;22.506;2023-07-24T09:27:06;8.55;;;5.10;;
62401;SDS011;48440;51.224;22.506;2023-07-24T09:29:33;10.02;;;5.45;;
62401;SDS011;48440;51.224;22.506;2023-07-24T09:32:00;8.30;;;5.40;;
62401;SDS011;48440;51.224;22.506;2023-07-24T09:34:26;8.85;;;5.45;;
62401;SDS011;48440;51.224;22.506;2023-07-24T09:36:51;9.18;;;5.47;;
62401;SDS011;48440;51.224;22.506;2023-07-24T09:39:24;7.40;;;5.63;;
62401;SDS011;48440;51.224;22.506;2023-07-24T09:41:52;11.07;;;5.18;;
62401;SDS011;48440;51.224;22.506;2023-07-24T09:44:20;8.35;;;5.15;;
62401;SDS011;48440;51.224;22.506;2023-07-24T09:46:45;8.52;;;5.50;;
62401;SDS011;48440;51.224;22.506;2023-07-24T09:49:12;6.65;;;5.20;;
62401;SDS011;48440;51.224;22.506;2023-07-24T09:51:38;6.75;;;5.22;;
62401;SDS011;48440;51.224;22.506;2023-07-24T09:56:51;7.63;;;5.22;;
62401;SDS011;48440;51.224;22.506;2023-07-24T09:59:18;8.88;;;5.25;;
62401;SDS011;48440;51.224;22.506;2023-07-24T10:01:46;9.85;;;5.78;;
62401;SDS011;48440;51.224;22.506;2023-07-24T10:04:14;8.07;;;5.47;;
62401;SDS011;48440;51.224;22.506;2023-07-24T10:06:41;9.35;;;5.72;;
62401;SDS011;48440;51.224;22.506;2023-07-24T10:09:08;10.27;;;5.63;;
62401;SDS011;48440;51.224;22.506;2023-07-24T10:11:33;6.95;;;5.43;;
62401;SDS011;48440;51.224;22.506;2023-07-24T10:13:59;11.35;;;5.90;;
62401;SDS011;48440;51.224;22.506;2023-07-24T10:16:25;11.13;;;5.93;;
62401;SDS011;48440;51.224;22.506;2023-07-24T10:18:51;10.68;;;5.78;;
62401;SDS011;48440;51.224;22.506;2023-07-24T10:21:16;8.55;;;5.72;;
62401;SDS011;48440;51.224;22.506;2023-07-24T10:23:42;10.07;;;6.35;;
62401;SDS011;48440;51.224;22.506;2023-07-24T10:26:11;10.38;;;5.90;;
62401;SDS011;48440;51.224;22.506;2023-07-24T10:28:38;9.15;;;6.50;;
62401;SDS011;48440;51.224;22.506;2023-07-24T10:31:26;11.25;;;6.63;;
62401;SDS011;48440;51.224;22.506;2023-07-24T10:33:55;9.65;;;6.25;;
62401;SDS011;48440;51.224;22.506;2023-07-24T10:36:32;10.95;;;6.50;;
62401;SDS011;48440;51.224;22.506;2023-07-24T10:39:01;8.07;;;5.50;;
62401;SDS011;48440;51.224;22.506;2023-07-24T10:41:34;10.48;;;6.25;;
62401;SDS011;48440;51.224;22.506;2023-07-24T10:44:01;9.23;;;5.78;;
62401;SDS011;48440;51.224;22.506;2023-07-24T10:46:35;8.80;;;6.35;;
62401;SDS011;48440;51.224;22.506;2023-07-24T10:49:05;10.00;;;5.75;;
62401;SDS011;48440;51.224;22.506;2023-07-24T10:51:31;11.10;;;7.38;;
62401;SDS011;48440;51.224;22.506;2023-07-24T10:54:02;13.02;;;6.93;;
62401;SDS011;48440;51.224;22.506;2023-07-24T10:56:29;13.77;;;6.53;;
62401;SDS011;48440;51.224;22.506;2023-07-24T10:58:55;13.57;;;6.82;;
62401;SDS011;48440;51.224;22.506;2023-07-24T11:01:20;11.70;;;6.30;;
62401;SDS011;48440;51.224;22.506;2023-07-24T11:03:46;10.88;;;7.05;;
62401;SDS011;48440;51.224;22.506;2023-07-24T11:06:13;11.27;;;7.57;;
62401;SDS011;48440;51.224;22.506;2023-07-24T11:08:39;12.73;;;7.68;;
62401;SDS011;48440;51.224;22.506;2023-07-24T11:11:05;11.65;;;7.40;;
62401;SDS011;48440;51.224;22.506;2023-07-24T11:13:32;10.05;;;6.32;;
62401;SDS011;48440;51.224;22.506;2023-07-24T11:16:03;10.15;;;6.65;;
62401;SDS011;48440;51.224;22.506;2023-07-24T11:18:30;12.07;;;6.60;;
62401;SDS011;48440;51.224;22.506;2023-07-24T11:20:56;12.85;;;8.05;;
62401;SDS011;48440;51.224;22.506;2023-07-24T11:23:22;18.95;;;9.57;;
62401;SDS011;48440;51.224;22.506;2023-07-24T11:25:51;16.25;;;8.70;;
62401;SDS011;48440;51.224;22.506;2023-07-24T11:28:21;14.98;;;8.00;;
62401;SDS011;48440;51.224;22.506;2023-07-24T11:30:47;12.60;;;7.25;;
62401;SDS011;48440;51.224;22.506;2023-07-24T11:33:14;12.43;;;7.00;;
62401;SDS011;48440;51.224;22.506;2023-07-24T11:35:41;13.43;;;6.70;;
62401;SDS011;48440;51.224;22.506;2023-07-24T11:38:10;12.68;;;6.50;;
62401;SDS011;48440;51.224;22.506;2023-07-24T11:40:43;10.10;;;6.45;;
62401;SDS011;48440;51.224;22.506;2023-07-24T11:43:16;13.43;;;6.15;;
62401;SDS011;48440;51.224;22.506;2023-07-24T11:45:43;8.27;;;5.72;;
62401;SDS011;48440;51.224;22.506;2023-07-24T11:48:10;9.18;;;6.30;;
62401;SDS011;48440;51.224;22.506;2023-07-24T11:50:44;10.75;;;6.90;;
62401;SDS011;48440;51.224;22.506;2023-07-24T11:53:21;11.48;;;6.65;;
62401;SDS011;48440;51.224;22.506;2023-07-24T11:56:12;10.88;;;6.75;;
62401;SDS011;48440;51.224;22.506;2023-07-24T11:58:39;8.57;;;6.57;;
62401;SDS011;48440;51.224;22.506;2023-07-24T12:01:04;11.45;;;6.22;;
62401;SDS011;48440;51.224;22.506;2023-07-24T12:03:30;12.35;;;6.35;;
62401;SDS011;48440;51.224;22.506;2023-07-24T12:05:55;9.13;;;6.07;;
62401;SDS011;48440;51.224;22.506;2023-07-24T12:08:29;10.82;;;6.55;;
62401;SDS011;48440;51.224;22.506;2023-07-24T12:10:56;10.43;;;5.80;;
62401;SDS011;48440;51.224;22.506;2023-07-24T12:13:21;11.95;;;6.07;;
62401;SDS011;48440;51.224;22.506;2023-07-24T12:15:47;9.07;;;5.60;;
62401;SDS011;48440;51.224;22.506;2023-07-24T12:18:13;8.40;;;6.00;;
62401;SDS011;48440;51.224;22.506;2023-07-24T12:20:38;9.27;;;6.13;;
62401;SDS011;48440;51.224;22.506;2023-07-24T12:23:05;9.30;;;6.20;;
62401;SDS011;48440;51.224;22.506;2023-07-24T12:25:30;11.02;;;5.95;;
62401;SDS011;48440;51.224;22.506;2023-07-24T12:27:56;8.57;;;5.88;;
62401;SDS011;48440;51.224;22.506;2023-07-24T12:30:21;12.43;;;5.88;;
62401;SDS011;48440;51.224;22.506;2023-07-24T12:32:47;9.05;;;5.38;;
62401;SDS011;48440;51.224;22.506;2023-07-24T12:35:12;10.07;;;6.55;;
62401;SDS011;48440;51.224;22.506;2023-07-24T12:37:38;7.30;;;5.72;;
62401;SDS011;48440;51.224;22.506;2023-07-24T12:40:07;9.32;;;5.97;;
62401;SDS011;48440;51.224;22.506;2023-07-24T12:42:33;10.50;;;5.55;;
62401;SDS011;48440;51.224;22.506;2023-07-24T12:44:59;7.38;;;5.63;;
62401;SDS011;48440;51.224;22.506;2023-07-24T12:47:27;7.63;;;4.97;;
62401;SDS011;48440;51.224;22.506;2023-07-24T12:49:52;9.63;;;5.57;;
62401;SDS011;48440;51.224;22.506;2023-07-24T12:52:20;9.85;;;5.70;;
62401;SDS011;48440;51.224;22.506;2023-07-24T12:54:46;7.30;;;5.43;;
62401;SDS011;48440;51.224;22.506;2023-07-24T12:57:11;7.35;;;5.13;;
62401;SDS011;48440;51.224;22.506;2023-07-24T12:59:37;8.60;;;5.60;;
62401;SDS011;48440;51.224;22.506;2023-07-24T13:02:03;9.73;;;6.00;;
62401;SDS011;48440;51.224;22.506;2023-07-24T13:04:28;9.68;;;6.13;;
62401;SDS011;48440;51.224;22.506;2023-07-24T13:06:53;9.40;;;5.93;;
62401;SDS011;48440;51.224;22.506;2023-07-24T13:09:19;14.85;;;6.13;;
62401;SDS011;48440;51.224;22.506;2023-07-24T13:11:45;9.23;;;5.70;;
62401;SDS011;48440;51.224;22.506;2023-07-24T13:14:13;10.05;;;5.97;;
62401;SDS011;48440;51.224;22.506;2023-07-24T13:16:40;9.82;;;6.03;;
62401;SDS011;48440;51.224;22.506;2023-07-24T13:19:05;12.85;;;6.30;;
62401;SDS011;48440;51.224;22.506;2023-07-24T13:21:30;10.10;;;5.85;;
62401;SDS011;48440;51.224;22.506;2023-07-24T13:23:56;8.82;;;6.07;;
62401;SDS011;48440;51.224;22.506;2023-07-24T13:26:22;9.70;;;6.22;;
62401;SDS011;48440;51.224;22.506;2023-07-24T13:28:47;11.40;;;6.35;;
62401;SDS011;48440;51.224;22.506;2023-07-24T13:31:17;9.90;;;6.32;;
62401;SDS011;48440;51.224;22.506;2023-07-24T13:33:43;9.35;;;5.82;;
62401;SDS011;48440;51.224;22.506;2023-07-24T13:36:09;10.55;;;6.75;;
62401;SDS011;48440;51.224;22.506;2023-07-24T13:38:35;9.43;;;5.72;;
62401;SDS011;48440;51.224;22.506;2023-07-24T13:41:01;12.10;;;6.05;;
62401;SDS011;48440;51.224;22.506;2023-07-24T13:43:27;10.35;;;7.03;;
62401;SDS011;48440;51.224;22.506;2023-07-24T13:45:53;10.32;;;6.88;;
62401;SDS011;48440;51.224;22.506;2023-07-24T13:48:20;11.20;;;7.47;;
62401;SDS011;48440;51.224;22.506;2023-07-24T13:50:46;11.55;;;7.15;;
62401;SDS011;48440;51.224;22.506;2023-07-24T13:53:11;10.27;;;6.32;;
62401;SDS011;48440;51.224;22.506;2023-07-24T13:55:37;8.85;;;5.47;;
62401;SDS011;48440;51.224;22.506;2023-07-24T13:58:03;8.60;;;5.82;;
62401;SDS011;48440;51.224;22.506;2023-07-24T14:00:28;9.75;;;5.72;;
62401;SDS011;48440;51.224;22.506;2023-07-24T14:02:54;8.93;;;5.72;;
62401;SDS011;48440;51.224;22.506;2023-07-24T14:05:19;9.52;;;6.57;;
62401;SDS011;48440;51.224;22.506;2023-07-24T14:07:45;11.43;;;5.97;;
62401;SDS011;48440;51.224;22.506;2023-07-24T14:10:10;7.68;;;5.45;;
62401;SDS011;48440;51.224;22.506;2023-07-24T14:12:36;11.23;;;6.30;;
62401;SDS011;48440;51.224;22.506;2023-07-24T14:15:02;9.60;;;5.78;;
62401;SDS011;48440;51.224;22.506;2023-07-24T14:17:27;9.65;;;6.30;;
62401;SDS011;48440;51.224;22.506;2023-07-24T14:19:53;9.05;;;5.75;;
62401;SDS011;48440;51.224;22.506;2023-07-24T14:22:19;9.27;;;6.03;;
62401;SDS011;48440;51.224;22.506;2023-07-24T14:24:44;10.82;;;6.30;;
62401;SDS011;48440;51.224;22.506;2023-07-24T14:27:11;11.05;;;6.30;;
62401;SDS011;48440;51.224;22.506;2023-07-24T14:29:36;15.10;;;6.55;;
62401;SDS011;48440;51.224;22.506;2023-07-24T14:32:01;12.10;;;6.95;;
62401;SDS011;48440;51.224;22.506;2023-07-24T14:34:27;11.32;;;6.32;;
62401;SDS011;48440;51.224;22.506;2023-07-24T14:36:52;11.65;;;6.40;;
62401;SDS011;48440;51.224;22.506;2023-07-24T14:39:18;13.05;;;6.68;;
62401;SDS011;48440;51.224;22.506;2023-07-24T14:41:43;13.07;;;7.20;;
62401;SDS011;48440;51.224;22.506;2023-07-24T14:44:09;18.27;;;7.65;;
62401;SDS011;48440;51.224;22.506;2023-07-24T14:46:35;12.52;;;6.82;;
62401;SDS011;48440;51.224;22.506;2023-07-24T14:49:01;13.98;;;7.35;;
62401;SDS011;48440;51.224;22.506;2023-07-24T14:51:26;14.80;;;6.85;;
62401;SDS011;48440;51.224;22.506;2023-07-24T14:53:52;12.93;;;6.95;;
62401;SDS011;48440;51.224;22.506;2023-07-24T14:56:17;11.57;;;6.85;;
62401;SDS011;48440;51.224;22.506;2023-07-24T14:58:42;11.35;;;7.00;;
62401;SDS011;48440;51.224;22.506;2023-07-24T15:01:10;12.90;;;7.05;;
62401;SDS011;48440;51.224;22.506;2023-07-24T15:03:36;14.15;;;7.70;;
62401;SDS011;48440;51.224;22.506;2023-07-24T15:06:02;15.82;;;7.40;;
62401;SDS011;48440;51.224;22.506;2023-07-24T15:08:30;11.52;;;7.25;;
62401;SDS011;48440;51.224;22.506;2023-07-24T15:10:55;10.30;;;7.15;;
62401;SDS011;48440;51.224;22.506;2023-07-24T15:13:21;14.05;;;7.45;;
62401;SDS011;48440;51.224;22.506;2023-07-24T15:15:46;10.95;;;7.50;;
62401;SDS011;48440;51.224;22.506;2023-07-24T15:18:11;12.18;;;7.43;;
62401;SDS011;48440;51.224;22.506;2023-07-24T15:20:37;10.65;;;7.30;;
62401;SDS011;48440;51.224;22.506;2023-07-24T15:23:02;15.10;;;7.45;;
62401;SDS011;48440;51.224;22.506;2023-07-24T15:25:27;12.98;;;7.20;;
62401;SDS011;48440;51.224;22.506;2023-07-24T15:27:53;14.18;;;7.85;;
62401;SDS011;48440;51.224;22.506;2023-07-24T15:30:18;13.73;;;7.38;;
62401;SDS011;48440;51.224;22.506;2023-07-24T15:32:44;13.50;;;7.50;;
62401;SDS011;48440;51.224;22.506;2023-07-24T15:35:11;11.30;;;6.85;;
62401;SDS011;48440;51.224;22.506;2023-07-24T15:37:36;10.38;;;7.05;;
62401;SDS011;48440;51.224;22.506;2023-07-24T15:40:02;12.05;;;7.15;;
62401;SDS011;48440;51.224;22.506;2023-07-24T15:42:27;11.48;;;7.15;;
62401;SDS011;48440;51.224;22.506;2023-07-24T15:44:53;15.30;;;7.57;;
62401;SDS011;48440;51.224;22.506;2023-07-24T15:47:19;12.55;;;7.28;;
62401;SDS011;48440;51.224;22.506;2023-07-24T15:49:44;14.05;;;8.18;;